createdAt,value
2019-03-18T00:01:01.326Z,66.50
2019-03-18T00:03:32.123Z,68.00
2019-03-18T00:06:02.870Z,68.50
2019-03-18T00:08:33.837Z,69.40
2019-03-18T00:11:04.541Z,69.60
2019-03-18T00:13:35.327Z,69.80
2019-03-18T00:16:06.326Z,70.50
2019-03-18T00:18:37.075Z,70.50
2019-03-18T00:21:07.822Z,70.20
2019-03-18T00:23:38.748Z,70.30
2019-03-18T00:26:09.473Z,70.10
2019-03-18T00:28:40.160Z,69.90
2019-03-18T00:31:10.947Z,69.60
2019-03-18T00:33:41.670Z,69.30
2019-03-18T00:36:12.514Z,67.70
2019-03-18T00:38:43.304Z,68.20
2019-03-18T00:41:14.734Z,67.90
2019-03-18T00:43:45.301Z,70.30
2019-03-18T00:46:15.807Z,68.80
2019-03-18T00:48:46.584Z,68.20
2019-03-18T00:51:17.107Z,68.40
2019-03-18T00:53:47.721Z,68.80
2019-03-18T00:56:18.181Z,69.10
2019-03-18T00:58:48.781Z,69.30
2019-03-18T01:01:19.351Z,69.60
2019-03-18T01:03:50.454Z,70.00
2019-03-18T01:06:21.476Z,70.60
2019-03-18T01:08:51.947Z,71.60
2019-03-18T01:11:22.559Z,71.90
2019-03-18T01:13:53.162Z,71.60
2019-03-18T01:16:23.653Z,71.90
2019-03-18T01:18:54.105Z,71.90
2019-03-18T01:21:24.656Z,71.60
2019-03-18T01:23:55.123Z,71.90
2019-03-18T01:26:25.570Z,71.80
2019-03-18T01:28:56.165Z,71.90
2019-03-18T01:31:26.813Z,71.90
2019-03-18T01:33:57.327Z,72.40
2019-03-18T01:36:28.060Z,73.00
2019-03-18T01:38:58.617Z,73.80
2019-03-18T01:41:29.160Z,74.60
2019-03-18T01:43:59.682Z,76.20
2019-03-18T01:46:30.257Z,77.40
2019-03-18T01:49:00.959Z,77.80
2019-03-18T01:51:31.483Z,78.60
2019-03-18T01:54:01.912Z,79.30
2019-03-18T01:56:32.590Z,80.60
2019-03-18T01:59:03.163Z,80.60
2019-03-18T02:01:33.693Z,81.40
2019-03-18T02:04:04.278Z,82.10
2019-03-18T02:06:34.842Z,82.70
2019-03-18T02:09:06.946Z,83.40
2019-03-18T02:11:37.522Z,83.50
2019-03-18T02:14:07.965Z,84.30
2019-03-18T02:16:38.447Z,84.30
2019-03-18T02:19:09.059Z,84.70
2019-03-18T02:21:39.500Z,85.30
2019-03-18T02:24:09.929Z,85.60
2019-03-18T02:26:40.437Z,86.10
2019-03-18T02:29:10.917Z,86.60
2019-03-18T02:31:41.442Z,87.80
2019-03-18T02:34:13.006Z,88.10
2019-03-18T02:36:43.457Z,88.20
2019-03-18T02:39:13.976Z,88.80
2019-03-18T02:41:44.572Z,88.80
2019-03-18T02:44:15.083Z,88.90
2019-03-18T02:46:45.568Z,88.50
2019-03-18T02:49:16.060Z,89.20
2019-03-18T02:51:46.604Z,89.00
2019-03-18T02:54:17.093Z,88.80
2019-03-18T02:56:47.625Z,88.70
2019-03-18T02:59:19.088Z,88.70
2019-03-18T03:01:49.531Z,88.20
2019-03-18T03:04:19.996Z,88.50
2019-03-18T03:06:50.598Z,88.60
2019-03-18T03:09:21.188Z,88.90
2019-03-18T03:11:51.816Z,89.10
2019-03-18T03:14:22.339Z,89.10
2019-03-18T03:16:52.749Z,89.20
2019-03-18T03:19:23.223Z,89.60
2019-03-18T03:21:53.767Z,89.60
2019-03-18T03:24:24.273Z,90.50
2019-03-18T03:26:54.799Z,90.20
2019-03-18T03:29:25.335Z,90.30
2019-03-18T03:31:55.837Z,90.40
2019-03-18T03:34:26.243Z,90.60
2019-03-18T03:36:57.047Z,90.60
2019-03-18T03:39:27.457Z,90.70
2019-03-18T03:41:58.070Z,90.60
2019-03-18T03:44:29.503Z,90.60
2019-03-18T03:47:00.012Z,90.60
2019-03-18T03:49:30.491Z,90.80
2019-03-18T03:52:01.028Z,90.90
2019-03-18T03:54:31.545Z,91.20
2019-03-18T03:57:02.053Z,91.40
2019-03-18T03:59:32.789Z,91.50
2019-03-18T04:02:03.320Z,91.50
2019-03-18T04:04:33.728Z,91.80
2019-03-18T04:07:04.237Z,91.70
2019-03-18T04:09:34.665Z,92.00
2019-03-18T04:12:05.126Z,92.00
2019-03-18T04:14:35.556Z,92.00
2019-03-18T04:17:07.359Z,92.30
2019-03-18T04:19:38.041Z,92.30
2019-03-18T04:22:08.504Z,92.30
2019-03-18T04:24:38.959Z,92.30
2019-03-18T04:27:09.735Z,92.30
2019-03-18T04:29:40.296Z,92.50
2019-03-18T04:32:10.914Z,92.50
2019-03-18T04:34:41.418Z,92.30
2019-03-18T04:37:11.887Z,92.40
2019-03-18T04:39:42.502Z,92.30
2019-03-18T04:42:13.011Z,92.30
2019-03-18T04:44:43.650Z,92.30
2019-03-18T04:47:14.801Z,92.30
2019-03-18T04:49:45.321Z,92.30
2019-03-18T04:52:15.879Z,92.30
2019-03-18T04:54:46.422Z,92.20
2019-03-18T04:57:16.964Z,92.30
2019-03-18T04:59:47.418Z,92.30
2019-03-18T05:02:18.020Z,92.50
2019-03-18T05:04:48.600Z,92.30
2019-03-18T05:07:19.238Z,92.40
2019-03-18T05:09:49.815Z,92.50
2019-03-18T05:12:20.446Z,92.70
2019-03-18T05:14:51.000Z,92.80
2019-03-18T05:17:26.703Z,93.10
2019-03-18T05:19:53.618Z,93.10
2019-03-18T05:22:24.124Z,93.10
2019-03-18T05:24:54.633Z,93.10
2019-03-18T05:27:25.238Z,93.10
2019-03-18T05:29:55.630Z,92.90
2019-03-18T05:32:26.163Z,92.90
2019-03-18T05:34:56.697Z,93.70
2019-03-18T05:37:27.170Z,92.90
2019-03-18T05:39:57.631Z,92.40
2019-03-18T05:42:28.203Z,92.00
2019-03-18T05:44:58.749Z,92.10
2019-03-18T05:47:38.708Z,92.00
2019-03-18T05:50:01.571Z,91.90
2019-03-18T05:52:32.122Z,91.80
2019-03-18T05:55:02.746Z,91.70
2019-03-18T05:57:33.397Z,91.60
2019-03-18T06:00:04.391Z,91.60
2019-03-18T06:02:35.026Z,91.40
2019-03-18T06:05:06.842Z,91.60
2019-03-18T06:07:37.465Z,91.60
2019-03-18T06:10:09.008Z,91.80
2019-03-18T06:12:39.541Z,91.70
2019-03-18T06:15:10.326Z,91.50
2019-03-18T06:17:51.791Z,91.50
2019-03-18T06:20:13.165Z,91.40
2019-03-18T06:22:43.688Z,91.60
2019-03-18T06:25:14.506Z,91.60
2019-03-18T06:27:45.309Z,91.50
2019-03-18T06:30:15.823Z,91.40
2019-03-18T06:32:46.330Z,91.40
2019-03-18T06:35:16.943Z,91.50
2019-03-18T06:37:47.482Z,91.20
2019-03-18T06:40:19.026Z,91.30
2019-03-18T06:42:49.584Z,91.30
2019-03-18T06:45:20.132Z,91.30
2019-03-18T06:47:51.063Z,91.30
2019-03-18T06:50:23.175Z,90.80
2019-03-18T06:52:54.620Z,90.70
2019-03-18T06:55:25.222Z,90.70
2019-03-18T06:57:55.757Z,90.70
2019-03-18T07:00:26.375Z,90.50
2019-03-18T07:02:56.926Z,90.40
2019-03-18T07:05:27.477Z,90.10
2019-03-18T07:07:57.970Z,90.10
2019-03-18T07:10:28.625Z,88.80
2019-03-18T07:12:59.151Z,88.60
2019-03-18T07:15:29.772Z,88.50
2019-03-18T07:18:00.197Z,87.90
2019-03-18T07:20:30.685Z,88.00
2019-03-18T07:23:02.999Z,87.40
2019-03-18T07:25:33.633Z,87.40
2019-03-18T07:28:04.173Z,86.20
2019-03-18T07:30:34.819Z,86.10
2019-03-18T07:33:05.390Z,85.70
2019-03-18T07:35:35.906Z,84.20
2019-03-18T07:38:06.410Z,85.40
2019-03-18T07:40:38.493Z,85.10
2019-03-18T07:43:09.016Z,85.40
2019-03-18T07:45:39.607Z,83.50
2019-03-18T07:48:12.470Z,83.60
2019-03-18T07:50:42.464Z,82.80
2019-03-18T07:53:12.976Z,81.40
2019-03-18T07:55:43.468Z,80.80
2019-03-18T07:58:14.124Z,80.80
2019-03-18T08:00:44.809Z,80.80
2019-03-18T08:03:15.533Z,80.70
2019-03-18T08:05:45.993Z,80.80
2019-03-18T08:08:16.496Z,80.20
2019-03-18T08:10:46.955Z,80.30
2019-03-18T08:13:17.458Z,80.10
2019-03-18T08:15:47.986Z,80.20
2019-03-18T08:18:19.499Z,80.70
2019-03-18T08:20:49.993Z,80.20
2019-03-18T08:23:20.559Z,80.60
2019-03-18T08:25:51.067Z,80.30
2019-03-18T08:28:21.605Z,80.60
2019-03-18T08:30:52.293Z,79.40
2019-03-18T08:33:22.808Z,79.10
2019-03-18T08:35:53.243Z,78.90
2019-03-18T08:38:24.074Z,78.50
2019-03-18T08:40:55.753Z,78.70
2019-03-18T08:43:26.407Z,78.40
2019-03-18T08:45:56.929Z,79.50
2019-03-18T08:48:27.901Z,79.70
2019-03-18T08:50:58.477Z,79.60
2019-03-18T08:53:29.097Z,80.30
2019-03-18T08:55:59.747Z,79.70
2019-03-18T08:58:30.330Z,78.50
2019-03-18T09:01:00.822Z,78.90
2019-03-18T09:03:31.304Z,78.80
2019-03-18T09:06:01.990Z,78.20
2019-03-18T09:08:32.430Z,78.70
2019-03-18T09:11:02.935Z,79.00
2019-03-18T09:13:33.490Z,79.00
2019-03-18T09:16:03.982Z,79.30
2019-03-18T09:18:34.597Z,80.20
2019-03-18T09:21:12.726Z,79.40
2019-03-18T09:23:43.115Z,79.00
2019-03-18T09:26:13.620Z,78.90
2019-03-18T09:28:44.081Z,78.40
2019-03-18T09:31:15.674Z,77.60
2019-03-18T09:33:46.243Z,77.60
2019-03-18T09:36:16.755Z,77.00
2019-03-18T09:38:47.243Z,76.80
2019-03-18T09:41:18.677Z,76.20
2019-03-18T09:43:49.182Z,74.90
2019-03-18T09:46:19.609Z,74.20
2019-03-18T09:48:50.156Z,74.60
2019-03-18T09:51:20.729Z,74.40
2019-03-18T09:53:56.308Z,74.90
2019-03-18T09:56:26.801Z,72.80
2019-03-18T09:58:57.346Z,73.30
2019-03-18T10:01:27.782Z,73.80
2019-03-18T10:03:58.243Z,74.90
2019-03-18T10:06:28.700Z,75.40
2019-03-18T10:08:59.407Z,75.60
2019-03-18T10:11:29.912Z,75.40
2019-03-18T10:14:00.324Z,75.50
2019-03-18T10:16:30.851Z,75.90
2019-03-18T10:19:01.301Z,76.30
2019-03-18T10:21:31.895Z,75.90
2019-03-18T10:24:02.711Z,76.30
2019-03-18T10:26:33.226Z,76.60
2019-03-18T10:29:04.017Z,76.70
2019-03-18T10:31:34.512Z,76.90
2019-03-18T10:34:05.070Z,76.80
2019-03-18T10:36:35.573Z,77.00
2019-03-18T10:39:08.049Z,77.10
2019-03-18T10:41:38.512Z,76.90
2019-03-18T10:44:09.000Z,76.70
2019-03-18T10:46:39.516Z,77.20
2019-03-18T10:49:10.034Z,76.80
2019-03-18T10:51:40.639Z,76.40
2019-03-18T10:54:11.050Z,76.80
2019-03-18T10:56:41.800Z,76.70
2019-03-18T10:59:12.347Z,76.80
2019-03-18T11:01:42.823Z,77.30
2019-03-18T11:04:13.432Z,77.60
2019-03-18T11:06:44.033Z,77.70
2019-03-18T11:09:14.901Z,78.00
2019-03-18T11:11:45.429Z,77.80
2019-03-18T11:14:16.097Z,77.80
2019-03-18T11:16:46.559Z,77.50
2019-03-18T11:19:17.163Z,78.00
2019-03-18T11:21:48.643Z,78.60
2019-03-18T11:24:19.201Z,79.10
2019-03-18T11:26:49.968Z,78.50
2019-03-18T11:29:21.633Z,78.20
2019-03-18T11:31:52.304Z,77.80
2019-03-18T11:34:22.742Z,78.00
2019-03-18T11:36:53.267Z,77.50
2019-03-18T11:39:24.795Z,77.00
2019-03-18T11:41:55.235Z,77.00
2019-03-18T11:44:25.683Z,76.30
2019-03-18T11:46:56.152Z,75.50
2019-03-18T11:49:38.785Z,75.10
2019-03-18T11:51:59.180Z,75.20
2019-03-18T11:54:30.074Z,75.80
2019-03-18T11:57:00.857Z,76.20
2019-03-18T11:59:31.347Z,76.20
2019-03-18T12:02:01.842Z,75.40
2019-03-18T12:04:32.917Z,76.00
2019-03-18T12:07:03.708Z,76.00
2019-03-18T12:09:34.618Z,74.80
2019-03-18T12:12:05.492Z,75.00
2019-03-18T12:14:36.054Z,74.90
2019-03-18T12:17:06.618Z,74.20
2019-03-18T12:19:37.205Z,74.00
2019-03-18T12:22:07.908Z,73.90
2019-03-18T12:24:38.466Z,73.50
2019-03-18T12:27:09.108Z,73.90
2019-03-18T12:29:39.611Z,73.10
2019-03-18T12:32:10.109Z,71.80
2019-03-18T12:34:40.656Z,70.60
2019-03-18T12:37:11.434Z,71.00
2019-03-18T12:39:41.939Z,71.00
2019-03-18T12:42:12.458Z,71.40
2019-03-18T12:44:43.164Z,71.20
2019-03-18T12:47:13.791Z,70.60
2019-03-18T12:49:44.487Z,70.50
2019-03-18T12:52:15.076Z,70.30
2019-03-18T12:54:45.606Z,70.60
2019-03-18T12:57:16.111Z,69.20
2019-03-18T12:59:46.648Z,69.20
2019-03-18T13:02:18.135Z,69.20
2019-03-18T13:04:48.665Z,68.20
2019-03-18T13:07:19.245Z,68.30
2019-03-18T13:09:49.835Z,68.40
2019-03-18T13:12:20.593Z,68.70
2019-03-18T13:14:51.135Z,68.30
2019-03-18T13:17:21.637Z,68.40
2019-03-18T13:19:52.047Z,68.20
2019-03-18T13:22:22.598Z,66.40
2019-03-18T13:24:53.189Z,64.50
2019-03-18T13:27:23.697Z,63.00
2019-03-18T13:29:54.167Z,63.70
2019-03-18T13:32:24.634Z,63.10
2019-03-18T13:34:55.227Z,63.80
2019-03-18T13:37:25.727Z,64.60
2019-03-18T13:39:56.170Z,65.00
2019-03-18T13:42:26.640Z,64.70
2019-03-18T13:44:57.337Z,63.30
2019-03-18T13:47:27.908Z,63.30
2019-03-18T13:49:58.493Z,63.00
2019-03-18T13:52:28.998Z,63.60
2019-03-18T13:54:59.570Z,63.50
2019-03-18T13:57:30.402Z,64.60
2019-03-18T14:00:00.974Z,65.20
2019-03-18T14:02:31.620Z,64.40
2019-03-18T14:05:02.202Z,63.50
2019-03-18T14:07:32.755Z,63.50
2019-03-18T14:10:03.402Z,62.10
2019-03-18T14:12:36.995Z,62.50
2019-03-18T14:15:08.234Z,62.40
2019-03-18T14:17:40.116Z,62.90
2019-03-18T14:20:11.701Z,61.90
2019-03-18T14:22:42.281Z,61.80
2019-03-18T14:25:12.832Z,62.70
2019-03-18T14:27:43.415Z,63.60
2019-03-18T14:30:15.415Z,62.30
2019-03-18T14:32:45.954Z,61.00
2019-03-18T14:35:16.510Z,60.30
2019-03-18T14:37:47.076Z,60.30
2019-03-18T14:40:17.575Z,60.30
2019-03-18T14:42:48.079Z,60.40
2019-03-18T14:45:18.860Z,60.80
2019-03-18T14:47:49.636Z,59.60
2019-03-18T14:50:20.272Z,59.30
2019-03-18T14:52:50.986Z,59.70
2019-03-18T14:55:21.594Z,59.50
2019-03-18T14:57:52.331Z,58.90
2019-03-18T15:00:22.962Z,57.50
2019-03-18T15:02:53.709Z,57.00
2019-03-18T15:05:24.153Z,56.90
2019-03-18T15:07:54.608Z,56.50
2019-03-18T15:10:25.221Z,57.20
2019-03-18T15:12:55.961Z,56.40
2019-03-18T15:15:26.536Z,56.40
2019-03-18T15:17:57.127Z,57.00
2019-03-18T15:20:27.752Z,57.30
2019-03-18T15:22:58.359Z,57.90
2019-03-18T15:25:28.895Z,58.40
2019-03-18T15:27:59.440Z,58.50
2019-03-18T15:30:29.861Z,59.50
2019-03-18T15:33:00.669Z,60.00
2019-03-18T15:35:31.229Z,60.30
2019-03-18T15:38:01.937Z,60.10
2019-03-18T15:40:32.407Z,60.00
2019-03-18T15:43:03.014Z,59.20
2019-03-18T15:45:33.504Z,59.30
2019-03-18T15:48:03.956Z,58.40
2019-03-18T15:50:34.516Z,58.40
2019-03-18T15:53:05.005Z,58.70
2019-03-18T15:55:35.589Z,58.70
2019-03-18T15:58:06.196Z,59.20
2019-03-18T16:00:36.706Z,59.60
2019-03-18T16:03:09.467Z,59.90
2019-03-18T16:05:40.029Z,59.70
2019-03-18T16:08:10.620Z,60.00
2019-03-18T16:10:41.146Z,60.00
2019-03-18T16:13:11.770Z,60.00
2019-03-18T16:15:42.287Z,60.30
2019-03-18T16:18:12.772Z,60.30
2019-03-18T16:20:43.434Z,61.00
2019-03-18T16:23:13.993Z,60.70
2019-03-18T16:25:44.447Z,61.20
2019-03-18T16:28:15.034Z,61.30
2019-03-18T16:30:45.522Z,61.00
2019-03-18T16:33:15.960Z,60.10
2019-03-18T16:35:46.625Z,60.50
2019-03-18T16:38:17.134Z,60.00
2019-03-18T16:40:47.669Z,60.00
2019-03-18T16:43:18.536Z,60.00
2019-03-18T16:45:49.366Z,59.50
2019-03-18T16:48:19.885Z,59.90
2019-03-18T16:50:50.455Z,59.90
2019-03-18T16:53:21.186Z,60.00
2019-03-18T16:55:51.690Z,59.80
2019-03-18T16:58:22.521Z,59.80
2019-03-18T17:00:53.055Z,59.80
2019-03-18T17:03:23.597Z,60.20
2019-03-18T17:05:55.110Z,60.20
2019-03-18T17:08:25.607Z,60.70
2019-03-18T17:10:56.149Z,61.10
2019-03-18T17:13:26.625Z,61.50
2019-03-18T17:15:57.469Z,62.10
2019-03-18T17:18:28.000Z,62.00
2019-03-18T17:20:58.663Z,62.00
2019-03-18T17:23:29.270Z,61.90
2019-03-18T17:25:59.921Z,61.90
2019-03-18T17:28:30.456Z,61.80
2019-03-18T17:31:01.880Z,62.00
2019-03-18T17:33:32.388Z,62.20
2019-03-18T17:36:03.995Z,62.20
2019-03-18T17:38:34.645Z,62.30
2019-03-18T17:41:05.421Z,62.50
2019-03-18T17:43:35.922Z,62.70
2019-03-18T17:46:06.663Z,63.10
2019-03-18T17:48:39.529Z,63.30
2019-03-18T17:51:10.326Z,63.50
2019-03-18T17:53:40.890Z,63.30
2019-03-18T17:56:11.624Z,63.60
2019-03-18T17:58:42.214Z,63.50
2019-03-18T18:01:13.121Z,63.60
2019-03-18T18:03:43.618Z,63.30
2019-03-18T18:06:14.246Z,63.60
2019-03-18T18:08:44.755Z,63.60
2019-03-18T18:11:15.358Z,63.60
2019-03-18T18:13:45.932Z,63.70
2019-03-18T18:16:16.643Z,63.60
2019-03-18T18:18:47.271Z,64.00
2019-03-18T18:21:17.895Z,63.80
2019-03-18T18:23:49.615Z,64.20
2019-03-18T18:26:20.431Z,64.50
2019-03-18T18:28:50.991Z,64.50
2019-03-18T18:31:21.568Z,64.60
2019-03-18T18:33:52.078Z,64.70
2019-03-18T18:36:25.149Z,64.90
2019-03-18T18:38:54.744Z,65.10
2019-03-18T18:41:25.336Z,65.20
2019-03-18T18:43:55.864Z,65.40
2019-03-18T18:46:26.428Z,65.20
2019-03-18T18:48:56.974Z,65.60
2019-03-18T18:51:31.401Z,65.80
2019-03-18T18:54:02.009Z,66.40
2019-03-18T18:56:32.609Z,66.50
2019-03-18T18:59:03.145Z,66.70
2019-03-18T19:01:36.099Z,66.60
2019-03-18T19:04:06.854Z,66.90
2019-03-18T19:06:37.680Z,67.20
2019-03-18T19:09:08.630Z,67.40
2019-03-18T19:11:39.256Z,67.40
2019-03-18T19:14:09.899Z,67.40
2019-03-18T19:16:40.385Z,67.50
2019-03-18T19:19:11.951Z,67.60
2019-03-18T19:21:42.526Z,67.90
2019-03-18T19:24:13.065Z,67.90
2019-03-18T19:26:43.536Z,67.60
2019-03-18T19:29:14.251Z,67.60
2019-03-18T19:31:45.936Z,67.30
2019-03-18T19:34:16.610Z,67.80
2019-03-18T19:36:47.196Z,67.20
2019-03-18T19:39:17.801Z,67.20
2019-03-18T19:41:48.451Z,67.30
2019-03-18T19:44:19.141Z,67.20
2019-03-18T19:46:49.733Z,67.00
2019-03-18T19:49:20.292Z,66.50
2019-03-18T19:51:51.178Z,66.50
2019-03-18T19:54:21.828Z,66.40
2019-03-18T19:56:52.417Z,66.40
2019-03-18T19:59:23.118Z,66.40
2019-03-18T20:01:53.766Z,66.10
2019-03-18T20:04:24.412Z,66.20
2019-03-18T20:06:55.078Z,66.20
2019-03-18T20:09:25.666Z,66.10
2019-03-18T20:11:56.259Z,66.30
2019-03-18T20:14:29.339Z,65.90
2019-03-18T20:16:59.974Z,66.10
2019-03-18T20:19:30.549Z,66.30
2019-03-18T20:22:01.011Z,66.30
2019-03-18T20:24:31.614Z,66.50
2019-03-18T20:27:03.544Z,66.70
2019-03-18T20:29:34.119Z,66.90
2019-03-18T20:32:04.746Z,67.10
2019-03-18T20:34:35.358Z,67.20
2019-03-18T20:37:05.901Z,67.60
2019-03-18T20:39:39.009Z,67.50
2019-03-18T20:42:11.647Z,67.60
2019-03-18T20:44:42.499Z,67.80
2019-03-18T20:47:13.049Z,68.10
2019-03-18T20:49:43.671Z,68.00
2019-03-18T20:52:16.913Z,68.30
2019-03-18T20:54:48.467Z,68.20
2019-03-18T20:57:19.305Z,67.80
2019-03-18T20:59:49.842Z,67.80
2019-03-18T21:02:20.382Z,67.60
2019-03-18T21:04:51.023Z,67.50
2019-03-18T21:07:22.727Z,67.50
2019-03-18T21:09:53.355Z,67.40
2019-03-18T21:12:24.048Z,67.00
2019-03-18T21:14:54.753Z,67.00
2019-03-18T21:17:25.311Z,67.00
2019-03-18T21:19:56.060Z,67.00
2019-03-18T21:22:26.625Z,67.00
2019-03-18T21:24:57.951Z,67.00
2019-03-18T21:27:28.713Z,67.00
2019-03-18T21:29:59.674Z,67.00
2019-03-18T21:32:30.158Z,66.90
2019-03-18T21:35:00.765Z,67.10
2019-03-18T21:37:31.432Z,67.20
2019-03-18T21:40:02.342Z,67.50
2019-03-18T21:42:32.850Z,67.70
2019-03-18T21:45:03.403Z,67.80
2019-03-18T21:47:33.938Z,68.10
2019-03-18T21:50:04.723Z,68.40
2019-03-18T21:52:35.173Z,68.60
2019-03-18T21:55:06.159Z,68.80
2019-03-18T21:57:36.678Z,69.00
2019-03-18T22:00:07.582Z,69.30
2019-03-18T22:02:39.394Z,69.50
2019-03-18T22:05:10.161Z,69.70
2019-03-18T22:07:40.672Z,70.00
2019-03-18T22:10:12.626Z,70.20
2019-03-18T22:12:43.109Z,70.50
2019-03-18T22:15:13.859Z,70.50
2019-03-18T22:17:46.599Z,71.10
2019-03-18T22:20:17.202Z,71.40
2019-03-18T22:22:47.684Z,71.70
2019-03-18T22:25:20.556Z,71.70
2019-03-18T22:27:51.004Z,72.00
2019-03-18T22:30:23.226Z,72.10
2019-03-18T22:32:53.673Z,72.60
2019-03-18T22:35:24.564Z,72.70
2019-03-18T22:37:54.973Z,73.10
2019-03-18T22:40:25.731Z,73.30
2019-03-18T22:42:56.236Z,73.00
2019-03-18T22:45:27.033Z,73.00
2019-03-18T22:47:57.458Z,73.00
2019-03-18T22:50:28.106Z,73.20
2019-03-18T22:52:58.744Z,73.00
2019-03-18T22:55:29.626Z,73.10
2019-03-18T22:58:00.185Z,73.20
2019-03-18T23:00:47.262Z,73.30
2019-03-18T23:03:18.084Z,73.20
2019-03-18T23:05:48.571Z,73.30
2019-03-18T23:08:21.501Z,73.60
2019-03-18T23:10:52.123Z,73.70
2019-03-18T23:13:22.717Z,73.90
2019-03-18T23:15:55.952Z,74.10
2019-03-18T23:18:26.595Z,74.10
2019-03-18T23:20:57.364Z,74.00
2019-03-18T23:23:28.018Z,74.40
2019-03-18T23:25:58.566Z,74.70
2019-03-18T23:28:29.153Z,75.00
2019-03-18T23:30:59.594Z,75.40
2019-03-18T23:33:30.324Z,75.90
2019-03-18T23:36:01.035Z,75.60
2019-03-18T23:38:31.745Z,75.70
2019-03-18T23:41:02.282Z,75.90
2019-03-18T23:43:33.930Z,76.30
2019-03-18T23:46:04.371Z,76.40
2019-03-18T23:48:34.957Z,76.50
2019-03-18T23:51:05.578Z,76.60
2019-03-18T23:53:36.122Z,76.80
2019-03-18T23:56:06.598Z,77.00
2019-03-18T23:58:37.111Z,76.90
